QFA485 YSSY-YMML
Flight info
| Callsign | QFA485 |
|---|---|
| Flight time | 1h 9m |
| Altitude | 36000 |
| Route | WOL H65 LEECE Q29 BOOIN |
| Aircraft | B738/M-SDE2E3FGHIRWXY/LB1 |
Departure
| Time | 2026-04-30 11:15 |
|---|---|
| Airport | Sydney Kingsford Smith International Airport (YSSY) |
Arrival
| Time | 2026-04-30 12:24 |
|---|---|
| Airport | Melbourne Airport (YMML) |
| Time | Latitude | Longitude | Altitude | Speed | Heading |
|---|---|---|---|---|---|
| 2026-04-30 10:29 | -33.93116 | 151.17713 | 29 ft | 0 kts | 190° |
| 2026-04-30 10:56 | -33.93113 | 151.17714 | 29 ft | 2 kts | 191° |
| 2026-04-30 10:56 | -33.93095 | 151.17718 | 29 ft | 3 kts | 195° |
| 2026-04-30 10:56 | -33.93076 | 151.17726 | 29 ft | 3 kts | 206° |
| 2026-04-30 10:57 | -33.93060 | 151.17738 | 29 ft | 3 kts | 232° |
| 2026-04-30 10:57 | -33.93054 | 151.17753 | 29 ft | 2 kts | 287° |
| 2026-04-30 10:57 | -33.93055 | 151.17758 | 29 ft | 1 kts | 295° |
| 2026-04-30 11:00 | -33.93053 | 151.17753 | 29 ft | 3 kts | 295° |
| 2026-04-30 11:00 | -33.93030 | 151.17698 | 29 ft | 9 kts | 297° |
| 2026-04-30 11:01 | -33.93009 | 151.17610 | 29 ft | 12 kts | 275° |
| 2026-04-30 11:01 | -33.93034 | 151.17545 | 29 ft | 8 kts | 211° |
| 2026-04-30 11:01 | -33.93094 | 151.17519 | 29 ft | 11 kts | 180° |
| 2026-04-30 11:01 | -33.93181 | 151.17540 | 29 ft | 15 kts | 167° |
| 2026-04-30 11:02 | -33.93295 | 151.17569 | 29 ft | 18 kts | 168° |
| 2026-04-30 11:02 | -33.93428 | 151.17589 | 29 ft | 20 kts | 188° |
| 2026-04-30 11:02 | -33.93545 | 151.17599 | 29 ft | 16 kts | 167° |
| 2026-04-30 11:02 | -33.93647 | 151.17636 | 29 ft | 15 kts | 153° |
| 2026-04-30 11:03 | -33.93740 | 151.17685 | 29 ft | 14 kts | 168° |
| 2026-04-30 11:03 | -33.93834 | 151.17715 | 29 ft | 14 kts | 147° |
| 2026-04-30 11:03 | -33.93907 | 151.17781 | 28 ft | 13 kts | 167° |
| 2026-04-30 11:04 | -33.94089 | 151.17828 | 28 ft | 14 kts | 168° |
| 2026-04-30 11:04 | -33.94185 | 151.17852 | 29 ft | 14 kts | 168° |
| 2026-04-30 11:04 | -33.94276 | 151.17876 | 29 ft | 13 kts | 167° |
| 2026-04-30 11:04 | -33.94366 | 151.17899 | 29 ft | 14 kts | 168° |
| 2026-04-30 11:05 | -33.94461 | 151.17901 | 29 ft | 14 kts | 207° |
| 2026-04-30 11:05 | -33.94552 | 151.17889 | 29 ft | 13 kts | 168° |
| 2026-04-30 11:05 | -33.94640 | 151.17911 | 29 ft | 13 kts | 168° |
| 2026-04-30 11:05 | -33.94728 | 151.17935 | 29 ft | 14 kts | 167° |
| 2026-04-30 11:06 | -33.94830 | 151.17961 | 29 ft | 16 kts | 168° |
| 2026-04-30 11:06 | -33.94936 | 151.17989 | 29 ft | 15 kts | 168° |
| 2026-04-30 11:06 | -33.95036 | 151.18015 | 29 ft | 11 kts | 168° |
| 2026-04-30 11:06 | -33.95093 | 151.18051 | 29 ft | 10 kts | 123° |
| 2026-04-30 11:07 | -33.95097 | 151.18129 | 29 ft | 9 kts | 82° |
| 2026-04-30 11:07 | -33.95082 | 151.18205 | 29 ft | 9 kts | 77° |
| 2026-04-30 11:07 | -33.95069 | 151.18278 | 29 ft | 9 kts | 77° |
| 2026-04-30 11:07 | -33.95054 | 151.18358 | 29 ft | 11 kts | 77° |
| 2026-04-30 11:08 | -33.95040 | 151.18441 | 29 ft | 9 kts | 86° |
| 2026-04-30 11:08 | -33.95069 | 151.18506 | 29 ft | 10 kts | 152° |
| 2026-04-30 11:08 | -33.95134 | 151.18564 | 29 ft | 13 kts | 138° |
| 2026-04-30 11:08 | -33.95206 | 151.18644 | 29 ft | 15 kts | 137° |
| 2026-04-30 11:09 | -33.95294 | 151.18710 | 29 ft | 15 kts | 161° |
| 2026-04-30 11:09 | -33.95391 | 151.18739 | 29 ft | 14 kts | 168° |
| 2026-04-30 11:09 | -33.95484 | 151.18763 | 29 ft | 13 kts | 168° |
| 2026-04-30 11:09 | -33.95575 | 151.18786 | 29 ft | 14 kts | 167° |
| 2026-04-30 11:10 | -33.95675 | 151.18812 | 29 ft | 15 kts | 168° |
| 2026-04-30 11:10 | -33.95771 | 151.18837 | 29 ft | 14 kts | 168° |
| 2026-04-30 11:10 | -33.95876 | 151.18864 | 29 ft | 16 kts | 167° |
| 2026-04-30 11:10 | -33.95983 | 151.18892 | 29 ft | 16 kts | 168° |
| 2026-04-30 11:11 | -33.96092 | 151.18921 | 29 ft | 16 kts | 167° |
| 2026-04-30 11:11 | -33.96197 | 151.18948 | 29 ft | 15 kts | 168° |
| 2026-04-30 11:11 | -33.96300 | 151.18974 | 29 ft | 16 kts | 168° |
| 2026-04-30 11:11 | -33.96417 | 151.19005 | 29 ft | 18 kts | 167° |
| 2026-04-30 11:12 | -33.96541 | 151.19037 | 29 ft | 18 kts | 168° |
| 2026-04-30 11:12 | -33.96660 | 151.19068 | 29 ft | 17 kts | 169° |
| 2026-04-30 11:12 | -33.96776 | 151.19064 | 29 ft | 17 kts | 188° |
| 2026-04-30 11:12 | -33.96888 | 151.19082 | 29 ft | 16 kts | 167° |
| 2026-04-30 11:13 | -33.96986 | 151.19108 | 29 ft | 11 kts | 168° |
| 2026-04-30 11:13 | -33.97059 | 151.19126 | 29 ft | 10 kts | 168° |
| 2026-04-30 11:13 | -33.97120 | 151.19164 | 29 ft | 10 kts | 120° |
| 2026-04-30 11:13 | -33.97118 | 151.19244 | 28 ft | 10 kts | 77° |
| 2026-04-30 11:14 | -33.97102 | 151.19333 | 25 ft | 12 kts | 78° |
| 2026-04-30 11:14 | -33.97073 | 151.19375 | 27 ft | 6 kts | 356° |
| 2026-04-30 11:14 | -33.97029 | 151.19364 | 24 ft | 8 kts | 348° |
| 2026-04-30 11:14 | -33.96870 | 151.19324 | 23 ft | 54 kts | 348° |
| 2026-04-30 11:15 | -33.96277 | 151.19169 | 27 ft | 120 kts | 347° |
| 2026-04-30 11:15 | -33.95289 | 151.18916 | 143 ft | 160 kts | 351° |
| 2026-04-30 11:15 | -33.94228 | 151.18684 | 920 ft | 158 kts | 359° |
| 2026-04-30 11:15 | -33.93278 | 151.18903 | 1443 ft | 161 kts | 37° |
| 2026-04-30 11:16 | -33.92795 | 151.19994 | 2189 ft | 155 kts | 84° |
| 2026-04-30 11:16 | -33.92873 | 151.21323 | 2840 ft | 166 kts | 104° |
| 2026-04-30 11:16 | -33.93380 | 151.22609 | 3468 ft | 176 kts | 115° |
| 2026-04-30 11:16 | -33.94304 | 151.23731 | 3773 ft | 210 kts | 154° |
| 2026-04-30 11:17 | -33.95829 | 151.23843 | 3954 ft | 238 kts | 197° |
| 2026-04-30 11:17 | -33.97342 | 151.22867 | 4250 ft | 257 kts | 212° |
| 2026-04-30 11:17 | -33.98911 | 151.21632 | 4573 ft | 278 kts | 212° |
| 2026-04-30 11:17 | -34.00504 | 151.20368 | 5462 ft | 277 kts | 212° |
| 2026-04-30 11:18 | -34.02131 | 151.19092 | 6291 ft | 279 kts | 211° |
| 2026-04-30 11:18 | -34.05458 | 151.16563 | 7807 ft | 286 kts | 211° |
| 2026-04-30 11:18 | -34.07180 | 151.15294 | 8492 ft | 293 kts | 211° |
| 2026-04-30 11:19 | -34.08919 | 151.14015 | 9336 ft | 293 kts | 211° |
| 2026-04-30 11:19 | -34.10686 | 151.12714 | 9975 ft | 302 kts | 211° |
| 2026-04-30 11:19 | -34.12511 | 151.11367 | 10458 ft | 316 kts | 211° |
| 2026-04-30 11:19 | -34.14462 | 151.09924 | 10627 ft | 340 kts | 211° |
| 2026-04-30 11:20 | -34.16518 | 151.08402 | 11086 ft | 351 kts | 211° |
| 2026-04-30 11:20 | -34.17910 | 151.07369 | 11425 ft | 357 kts | 211° |
| 2026-04-30 11:20 | -34.20744 | 151.05266 | 12344 ft | 360 kts | 211° |
| 2026-04-30 11:20 | -34.22882 | 151.03678 | 13145 ft | 360 kts | 212° |
| 2026-04-30 11:21 | -34.25018 | 151.02091 | 13939 ft | 362 kts | 212° |
| 2026-04-30 11:21 | -34.26447 | 151.01028 | 14351 ft | 366 kts | 212° |
| 2026-04-30 11:21 | -34.28623 | 150.99409 | 15010 ft | 368 kts | 212° |
| 2026-04-30 11:21 | -34.30827 | 150.97767 | 15708 ft | 371 kts | 212° |
| 2026-04-30 11:22 | -34.33038 | 150.96120 | 16362 ft | 375 kts | 212° |
| 2026-04-30 11:22 | -34.35276 | 150.94451 | 17063 ft | 378 kts | 212° |
| 2026-04-30 11:22 | -34.37528 | 150.92771 | 17707 ft | 382 kts | 212° |
| 2026-04-30 11:22 | -34.40535 | 150.90526 | 18582 ft | 386 kts | 211° |
| 2026-04-30 11:23 | -34.42059 | 150.89389 | 19003 ft | 388 kts | 211° |
| 2026-04-30 11:23 | -34.44373 | 150.87659 | 19560 ft | 392 kts | 211° |
| 2026-04-30 11:23 | -34.49044 | 150.84165 | 20718 ft | 398 kts | 211° |
| 2026-04-30 11:24 | -34.51412 | 150.82392 | 21259 ft | 402 kts | 212° |
| 2026-04-30 11:24 | -34.53794 | 150.80592 | 21807 ft | 405 kts | 213° |
| 2026-04-30 11:24 | -34.56007 | 150.78451 | 22314 ft | 409 kts | 224° |
| 2026-04-30 11:25 | -34.59588 | 150.73068 | 23412 ft | 414 kts | 234° |
| 2026-04-30 11:25 | -34.61279 | 150.70204 | 23911 ft | 418 kts | 234° |
| 2026-04-30 11:25 | -34.64694 | 150.64406 | 24810 ft | 423 kts | 234° |
| 2026-04-30 11:26 | -34.68142 | 150.58616 | 25715 ft | 427 kts | 233° |
| 2026-04-30 11:26 | -34.69895 | 150.55687 | 26153 ft | 429 kts | 233° |
| 2026-04-30 11:26 | -34.71654 | 150.52753 | 26579 ft | 431 kts | 233° |
| 2026-04-30 11:27 | -34.73427 | 150.49796 | 26988 ft | 433 kts | 233° |
| 2026-04-30 11:27 | -34.75207 | 150.46825 | 27388 ft | 435 kts | 233° |
| 2026-04-30 11:27 | -34.76975 | 150.43868 | 27787 ft | 437 kts | 233° |
| 2026-04-30 11:27 | -34.78769 | 150.40866 | 28188 ft | 439 kts | 233° |
| 2026-04-30 11:28 | -34.82384 | 150.34809 | 28963 ft | 443 kts | 233° |
| 2026-04-30 11:28 | -34.84199 | 150.31765 | 29343 ft | 445 kts | 233° |
| 2026-04-30 11:28 | -34.86005 | 150.28734 | 29689 ft | 448 kts | 233° |
| 2026-04-30 11:29 | -34.87838 | 150.25653 | 30024 ft | 450 kts | 233° |
| 2026-04-30 11:29 | -34.89679 | 150.22557 | 30414 ft | 451 kts | 233° |
| 2026-04-30 11:29 | -34.93339 | 150.16392 | 31322 ft | 446 kts | 233° |
| 2026-04-30 11:30 | -34.96943 | 150.10313 | 32142 ft | 444 kts | 234° |
| 2026-04-30 11:30 | -34.98752 | 150.07258 | 32487 ft | 444 kts | 234° |
| 2026-04-30 11:30 | -35.00556 | 150.04208 | 32861 ft | 443 kts | 234° |
| 2026-04-30 11:31 | -35.02356 | 150.01162 | 33271 ft | 441 kts | 234° |
| 2026-04-30 11:31 | -35.04153 | 149.98119 | 33654 ft | 440 kts | 233° |
| 2026-04-30 11:31 | -35.05913 | 149.95135 | 33995 ft | 440 kts | 233° |
| 2026-04-30 11:31 | -35.07702 | 149.92105 | 34357 ft | 439 kts | 233° |
| 2026-04-30 11:32 | -35.09487 | 149.89082 | 34686 ft | 438 kts | 233° |
| 2026-04-30 11:32 | -35.11263 | 149.86073 | 35053 ft | 435 kts | 234° |
| 2026-04-30 11:32 | -35.13029 | 149.83080 | 35444 ft | 432 kts | 234° |
| 2026-04-30 11:33 | -35.16524 | 149.77144 | 36058 ft | 429 kts | 234° |
| 2026-04-30 11:33 | -35.18263 | 149.74183 | 36352 ft | 428 kts | 234° |
| 2026-04-30 11:33 | -35.20005 | 149.71214 | 36458 ft | 431 kts | 234° |
| 2026-04-30 11:33 | -35.21756 | 149.68226 | 36465 ft | 433 kts | 234° |
| 2026-04-30 11:34 | -35.25234 | 149.62289 | 36459 ft | 429 kts | 234° |
| 2026-04-30 11:34 | -35.28684 | 149.56392 | 36462 ft | 425 kts | 235° |
| 2026-04-30 11:35 | -35.32142 | 149.50470 | 36466 ft | 425 kts | 235° |
| 2026-04-30 11:35 | -35.35545 | 149.44630 | 36462 ft | 425 kts | 235° |
| 2026-04-30 11:36 | -35.38981 | 149.38726 | 36459 ft | 425 kts | 235° |
| 2026-04-30 11:36 | -35.42414 | 149.32816 | 36464 ft | 426 kts | 235° |
| 2026-04-30 11:37 | -35.45848 | 149.26898 | 36462 ft | 426 kts | 235° |
| 2026-04-30 11:37 | -35.49286 | 149.20959 | 36465 ft | 427 kts | 235° |
| 2026-04-30 11:38 | -35.52713 | 149.15028 | 36466 ft | 428 kts | 235° |
| 2026-04-30 11:38 | -35.56154 | 149.09065 | 36473 ft | 428 kts | 235° |
| 2026-04-30 11:39 | -35.59592 | 149.03096 | 36487 ft | 428 kts | 236° |
| 2026-04-30 11:39 | -35.63033 | 148.97118 | 36486 ft | 428 kts | 236° |
| 2026-04-30 11:40 | -35.66466 | 148.91136 | 36495 ft | 428 kts | 236° |
| 2026-04-30 11:40 | -35.69894 | 148.85151 | 36497 ft | 428 kts | 236° |
| 2026-04-30 11:41 | -35.73321 | 148.79160 | 36494 ft | 428 kts | 236° |
| 2026-04-30 11:41 | -35.76745 | 148.73163 | 36498 ft | 428 kts | 236° |
| 2026-04-30 11:42 | -35.80164 | 148.67169 | 36494 ft | 427 kts | 236° |
| 2026-04-30 11:42 | -35.83573 | 148.61175 | 36503 ft | 427 kts | 236° |
| 2026-04-30 11:43 | -35.86981 | 148.55177 | 36499 ft | 427 kts | 237° |
| 2026-04-30 11:43 | -35.90380 | 148.49168 | 36491 ft | 427 kts | 237° |
| 2026-04-30 11:44 | -35.93740 | 148.43192 | 36487 ft | 427 kts | 237° |
| 2026-04-30 11:44 | -35.97122 | 148.37172 | 36493 ft | 427 kts | 237° |
| 2026-04-30 11:45 | -36.00499 | 148.31142 | 36475 ft | 427 kts | 237° |
| 2026-04-30 11:45 | -36.03875 | 148.25107 | 36460 ft | 428 kts | 237° |
| 2026-04-30 11:46 | -36.07254 | 148.19057 | 36468 ft | 428 kts | 238° |
| 2026-04-30 11:46 | -36.10638 | 148.12992 | 36451 ft | 429 kts | 238° |
| 2026-04-30 11:47 | -36.14026 | 148.06918 | 36454 ft | 429 kts | 238° |
| 2026-04-30 11:47 | -36.17421 | 148.00841 | 36445 ft | 430 kts | 238° |
| 2026-04-30 11:48 | -36.20814 | 147.94757 | 36449 ft | 430 kts | 238° |
| 2026-04-30 11:48 | -36.24208 | 147.88658 | 36435 ft | 430 kts | 238° |
| 2026-04-30 11:49 | -36.27601 | 147.82548 | 36450 ft | 430 kts | 238° |
| 2026-04-30 11:49 | -36.30992 | 147.76431 | 36438 ft | 431 kts | 238° |
| 2026-04-30 11:50 | -36.34382 | 147.70305 | 36443 ft | 431 kts | 238° |
| 2026-04-30 11:50 | -36.37770 | 147.64160 | 36440 ft | 431 kts | 239° |
| 2026-04-30 11:51 | -36.41154 | 147.58009 | 36446 ft | 432 kts | 239° |
| 2026-04-30 11:51 | -36.44538 | 147.51847 | 36443 ft | 432 kts | 239° |
| 2026-04-30 11:52 | -36.47922 | 147.45674 | 36443 ft | 432 kts | 239° |
| 2026-04-30 11:52 | -36.51305 | 147.39494 | 36439 ft | 431 kts | 239° |
| 2026-04-30 11:53 | -36.52970 | 147.36450 | 36321 ft | 424 kts | 239° |
| 2026-04-30 11:53 | -36.54617 | 147.33439 | 36040 ft | 417 kts | 239° |
| 2026-04-30 11:53 | -36.56237 | 147.30471 | 35666 ft | 413 kts | 239° |
| 2026-04-30 11:53 | -36.57842 | 147.27526 | 35315 ft | 410 kts | 239° |
| 2026-04-30 11:54 | -36.59437 | 147.24596 | 34947 ft | 407 kts | 239° |
| 2026-04-30 11:54 | -36.61019 | 147.21687 | 34586 ft | 405 kts | 239° |
| 2026-04-30 11:54 | -36.62595 | 147.18785 | 34181 ft | 403 kts | 239° |
| 2026-04-30 11:54 | -36.64160 | 147.15903 | 33775 ft | 401 kts | 240° |
| 2026-04-30 11:55 | -36.65715 | 147.13037 | 33402 ft | 398 kts | 240° |
| 2026-04-30 11:55 | -36.67261 | 147.10186 | 33039 ft | 396 kts | 240° |
| 2026-04-30 11:55 | -36.68797 | 147.07352 | 32670 ft | 394 kts | 240° |
| 2026-04-30 11:55 | -36.70324 | 147.04533 | 32306 ft | 391 kts | 240° |
| 2026-04-30 11:56 | -36.71843 | 147.01727 | 31942 ft | 389 kts | 240° |
| 2026-04-30 11:56 | -36.73355 | 146.98936 | 31590 ft | 387 kts | 240° |
| 2026-04-30 11:56 | -36.74858 | 146.96161 | 31246 ft | 386 kts | 240° |
| 2026-04-30 11:56 | -36.76356 | 146.93393 | 30886 ft | 384 kts | 240° |
| 2026-04-30 11:57 | -36.77845 | 146.90638 | 30548 ft | 382 kts | 240° |
| 2026-04-30 11:57 | -36.79327 | 146.87893 | 30149 ft | 380 kts | 240° |
| 2026-04-30 11:57 | -36.80799 | 146.85165 | 29777 ft | 377 kts | 240° |
| 2026-04-30 11:57 | -36.82227 | 146.82517 | 29400 ft | 375 kts | 240° |
| 2026-04-30 11:58 | -36.83679 | 146.79821 | 29039 ft | 372 kts | 240° |
| 2026-04-30 11:58 | -36.85117 | 146.77147 | 28671 ft | 370 kts | 240° |
| 2026-04-30 11:58 | -36.86548 | 146.74487 | 28329 ft | 368 kts | 240° |
| 2026-04-30 11:58 | -36.87961 | 146.71856 | 27964 ft | 365 kts | 240° |
| 2026-04-30 11:59 | -36.89372 | 146.69227 | 27621 ft | 363 kts | 240° |
| 2026-04-30 11:59 | -36.90774 | 146.66613 | 27277 ft | 361 kts | 240° |
| 2026-04-30 11:59 | -36.92170 | 146.64008 | 26931 ft | 359 kts | 240° |
| 2026-04-30 11:59 | -36.93555 | 146.61420 | 26584 ft | 358 kts | 240° |
| 2026-04-30 12:00 | -36.94935 | 146.58842 | 26238 ft | 356 kts | 240° |
| 2026-04-30 12:00 | -36.96291 | 146.56307 | 25910 ft | 354 kts | 240° |
| 2026-04-30 12:00 | -36.97658 | 146.53749 | 25575 ft | 353 kts | 240° |
| 2026-04-30 12:00 | -36.99020 | 146.51197 | 25222 ft | 352 kts | 240° |
| 2026-04-30 12:01 | -37.00378 | 146.48651 | 24882 ft | 351 kts | 240° |
| 2026-04-30 12:01 | -37.01725 | 146.46124 | 24536 ft | 351 kts | 240° |
| 2026-04-30 12:01 | -37.03077 | 146.43584 | 24187 ft | 350 kts | 240° |
| 2026-04-30 12:01 | -37.04429 | 146.41046 | 23822 ft | 350 kts | 240° |
| 2026-04-30 12:02 | -37.05778 | 146.38510 | 23428 ft | 349 kts | 241° |
| 2026-04-30 12:02 | -37.07120 | 146.35985 | 23079 ft | 347 kts | 241° |
| 2026-04-30 12:02 | -37.08452 | 146.33478 | 22728 ft | 345 kts | 241° |
| 2026-04-30 12:02 | -37.09778 | 146.30977 | 22368 ft | 343 kts | 240° |
| 2026-04-30 12:03 | -37.11090 | 146.28499 | 22034 ft | 341 kts | 240° |
| 2026-04-30 12:03 | -37.13691 | 146.23578 | 21389 ft | 336 kts | 241° |
| 2026-04-30 12:03 | -37.14978 | 146.21138 | 21067 ft | 334 kts | 241° |
| 2026-04-30 12:04 | -37.16257 | 146.18716 | 20732 ft | 333 kts | 241° |
| 2026-04-30 12:04 | -37.17529 | 146.16303 | 20416 ft | 331 kts | 241° |
| 2026-04-30 12:04 | -37.18794 | 146.13900 | 20096 ft | 329 kts | 241° |
| 2026-04-30 12:04 | -37.20054 | 146.11508 | 19780 ft | 328 kts | 241° |
| 2026-04-30 12:05 | -37.21307 | 146.09124 | 19444 ft | 327 kts | 241° |
| 2026-04-30 12:05 | -37.22557 | 146.06745 | 19121 ft | 326 kts | 241° |
| 2026-04-30 12:05 | -37.23803 | 146.04375 | 18812 ft | 325 kts | 241° |
| 2026-04-30 12:05 | -37.25045 | 146.02008 | 18434 ft | 325 kts | 241° |
| 2026-04-30 12:06 | -37.26284 | 145.99644 | 18088 ft | 323 kts | 241° |
| 2026-04-30 12:06 | -37.27515 | 145.97296 | 17754 ft | 321 kts | 241° |
| 2026-04-30 12:06 | -37.28740 | 145.94959 | 17424 ft | 319 kts | 240° |
| 2026-04-30 12:06 | -37.29951 | 145.92647 | 17106 ft | 316 kts | 240° |
| 2026-04-30 12:07 | -37.30750 | 145.91121 | 16908 ft | 315 kts | 240° |
| 2026-04-30 12:07 | -37.31952 | 145.88837 | 16618 ft | 312 kts | 240° |
| 2026-04-30 12:07 | -37.33536 | 145.85832 | 16198 ft | 311 kts | 240° |
| 2026-04-30 12:07 | -37.34727 | 145.83570 | 15888 ft | 310 kts | 240° |
| 2026-04-30 12:08 | -37.35906 | 145.81331 | 15580 ft | 308 kts | 240° |
| 2026-04-30 12:08 | -37.37086 | 145.79089 | 15292 ft | 307 kts | 240° |
| 2026-04-30 12:08 | -37.37880 | 145.77578 | 15074 ft | 307 kts | 240° |
| 2026-04-30 12:08 | -37.39053 | 145.75344 | 14765 ft | 306 kts | 240° |
| 2026-04-30 12:09 | -37.40222 | 145.73115 | 14474 ft | 305 kts | 240° |
| 2026-04-30 12:09 | -37.41766 | 145.70172 | 14056 ft | 304 kts | 240° |
| 2026-04-30 12:09 | -37.42550 | 145.68676 | 13828 ft | 303 kts | 240° |
| 2026-04-30 12:09 | -37.43706 | 145.66468 | 13504 ft | 301 kts | 240° |
| 2026-04-30 12:10 | -37.44843 | 145.64299 | 13184 ft | 299 kts | 240° |
| 2026-04-30 12:10 | -37.46008 | 145.62159 | 12978 ft | 293 kts | 238° |
| 2026-04-30 12:10 | -37.47210 | 145.60092 | 12686 ft | 292 kts | 237° |
| 2026-04-30 12:10 | -37.48417 | 145.58039 | 12403 ft | 291 kts | 237° |
| 2026-04-30 12:11 | -37.49616 | 145.55994 | 12103 ft | 290 kts | 237° |
| 2026-04-30 12:11 | -37.50806 | 145.53954 | 11813 ft | 288 kts | 237° |
| 2026-04-30 12:11 | -37.51985 | 145.51925 | 11534 ft | 287 kts | 237° |
| 2026-04-30 12:11 | -37.53161 | 145.49894 | 11236 ft | 286 kts | 237° |
| 2026-04-30 12:12 | -37.54331 | 145.47869 | 10942 ft | 286 kts | 237° |
| 2026-04-30 12:12 | -37.55498 | 145.45849 | 10651 ft | 285 kts | 237° |
| 2026-04-30 12:12 | -37.56664 | 145.43834 | 10369 ft | 284 kts | 237° |
| 2026-04-30 12:12 | -37.57828 | 145.41826 | 10053 ft | 283 kts | 237° |
| 2026-04-30 12:13 | -37.59008 | 145.39786 | 9520 ft | 291 kts | 237° |
| 2026-04-30 12:13 | -37.60202 | 145.37724 | 9155 ft | 291 kts | 237° |
| 2026-04-30 12:13 | -37.61371 | 145.35704 | 9021 ft | 279 kts | 237° |
| 2026-04-30 12:13 | -37.62503 | 145.33747 | 9006 ft | 272 kts | 237° |
| 2026-04-30 12:14 | -37.63597 | 145.31854 | 9005 ft | 264 kts | 237° |
| 2026-04-30 12:14 | -37.64667 | 145.29996 | 8972 ft | 261 kts | 238° |
| 2026-04-30 12:14 | -37.65747 | 145.28122 | 8606 ft | 267 kts | 238° |
| 2026-04-30 12:14 | -37.66853 | 145.26195 | 8124 ft | 276 kts | 238° |
| 2026-04-30 12:15 | -37.67998 | 145.24203 | 7695 ft | 282 kts | 238° |
| 2026-04-30 12:15 | -37.69145 | 145.22219 | 7532 ft | 277 kts | 238° |
| 2026-04-30 12:15 | -37.70271 | 145.20271 | 7206 ft | 274 kts | 238° |
| 2026-04-30 12:15 | -37.71397 | 145.18314 | 6741 ft | 276 kts | 238° |
| 2026-04-30 12:16 | -37.72523 | 145.16353 | 6285 ft | 275 kts | 238° |
| 2026-04-30 12:16 | -37.73632 | 145.14421 | 5792 ft | 276 kts | 239° |
| 2026-04-30 12:16 | -37.74747 | 145.12479 | 5589 ft | 272 kts | 239° |
| 2026-04-30 12:16 | -37.75851 | 145.10557 | 5412 ft | 265 kts | 239° |
| 2026-04-30 12:17 | -37.77961 | 145.06878 | 4940 ft | 253 kts | 240° |
| 2026-04-30 12:17 | -37.78987 | 145.05084 | 4710 ft | 251 kts | 240° |
| 2026-04-30 12:17 | -37.80010 | 145.03297 | 4541 ft | 249 kts | 240° |
| 2026-04-30 12:18 | -37.81008 | 145.01550 | 4438 ft | 241 kts | 242° |
| 2026-04-30 12:18 | -37.81633 | 144.99714 | 4340 ft | 219 kts | 265° |
| 2026-04-30 12:18 | -37.81925 | 144.97882 | 4220 ft | 208 kts | 265° |
| 2026-04-30 12:18 | -37.82223 | 144.96121 | 4116 ft | 205 kts | 265° |
| 2026-04-30 12:19 | -37.82524 | 144.94342 | 3928 ft | 208 kts | 265° |
| 2026-04-30 12:19 | -37.82771 | 144.92555 | 3725 ft | 202 kts | 268° |
| 2026-04-30 12:19 | -37.82979 | 144.90845 | 3527 ft | 194 kts | 268° |
| 2026-04-30 12:19 | -37.83164 | 144.89165 | 3246 ft | 192 kts | 274° |
| 2026-04-30 12:20 | -37.82851 | 144.87612 | 2928 ft | 179 kts | 313° |
| 2026-04-30 12:20 | -37.81900 | 144.86697 | 2639 ft | 170 kts | 343° |
| 2026-04-30 12:20 | -37.80790 | 144.86444 | 2556 ft | 157 kts | 353° |
| 2026-04-30 12:20 | -37.79723 | 144.86228 | 2525 ft | 155 kts | 353° |
| 2026-04-30 12:21 | -37.78666 | 144.86017 | 2366 ft | 151 kts | 353° |
| 2026-04-30 12:21 | -37.77636 | 144.85815 | 2165 ft | 146 kts | 353° |
| 2026-04-30 12:21 | -37.76656 | 144.85618 | 1990 ft | 141 kts | 352° |
| 2026-04-30 12:21 | -37.75694 | 144.85402 | 1800 ft | 138 kts | 353° |
| 2026-04-30 12:22 | -37.74749 | 144.85222 | 1607 ft | 138 kts | 353° |
| 2026-04-30 12:22 | -37.73793 | 144.85047 | 1426 ft | 141 kts | 353° |
| 2026-04-30 12:22 | -37.72800 | 144.84867 | 1226 ft | 147 kts | 353° |
| 2026-04-30 12:22 | -37.71880 | 144.84700 | 1066 ft | 148 kts | 353° |
| 2026-04-30 12:23 | -37.70838 | 144.84514 | 850 ft | 152 kts | 353° |
| 2026-04-30 12:23 | -37.69830 | 144.84329 | 643 ft | 141 kts | 352° |
| 2026-04-30 12:23 | -37.68864 | 144.84152 | 431 ft | 141 kts | 353° |
| 2026-04-30 12:23 | -37.67904 | 144.83973 | 359 ft | 132 kts | 350° |
| 2026-04-30 12:24 | -37.67263 | 144.83851 | 376 ft | 93 kts | 351° |
| 2026-04-30 12:24 | -37.66770 | 144.83761 | 394 ft | 52 kts | 351° |
| 2026-04-30 12:24 | -37.66563 | 144.83760 | 401 ft | 16 kts | 24° |
| 2026-04-30 12:24 | -37.66512 | 144.83847 | 403 ft | 7 kts | 78° |
| 2026-04-30 12:25 | -37.66510 | 144.83876 | 403 ft | 0 kts | 91° |
| 2026-04-30 12:25 | -37.66510 | 144.83878 | 403 ft | 1 kts | 91° |
| 2026-04-30 12:25 | -37.66510 | 144.83902 | 403 ft | 4 kts | 91° |
| 2026-04-30 12:26 | -37.66527 | 144.83931 | 400 ft | 0 kts | 145° |
| 2026-04-30 12:26 | -37.66540 | 144.83936 | 402 ft | 5 kts | 171° |
| 2026-04-30 12:26 | -37.66608 | 144.83950 | 399 ft | 14 kts | 172° |
| 2026-04-30 12:27 | -37.66703 | 144.83978 | 389 ft | 11 kts | 141° |
| 2026-04-30 12:27 | -37.66717 | 144.84068 | 389 ft | 11 kts | 83° |
| 2026-04-30 12:27 | -37.66717 | 144.84142 | 392 ft | 8 kts | 116° |
| 2026-04-30 12:27 | -37.66737 | 144.84166 | 393 ft | 1 kts | 142° |
| 2026-04-30 12:28 | -37.66737 | 144.84175 | 393 ft | 1 kts | 75° |
| 2026-04-30 12:28 | -37.66722 | 144.84189 | 392 ft | 5 kts | 39° |
| 2026-04-30 12:28 | -37.66700 | 144.84232 | 395 ft | 7 kts | 70° |
| 2026-04-30 12:28 | -37.66690 | 144.84295 | 390 ft | 8 kts | 81° |
| 2026-04-30 12:29 | -37.66679 | 144.84384 | 394 ft | 12 kts | 81° |
| 2026-04-30 12:29 | -37.66666 | 144.84494 | 398 ft | 13 kts | 81° |
| 2026-04-30 12:29 | -37.66654 | 144.84603 | 399 ft | 12 kts | 82° |
| 2026-04-30 12:29 | -37.66642 | 144.84710 | 401 ft | 12 kts | 82° |
| 2026-04-30 12:30 | -37.66645 | 144.84791 | 401 ft | 9 kts | 133° |
| 2026-04-30 12:30 | -37.66686 | 144.84841 | 400 ft | 7 kts | 93° |
| 2026-04-30 12:30 | -37.66681 | 144.84889 | 400 ft | 2 kts | 82° |
| 2026-04-30 12:30 | -37.66680 | 144.84898 | 400 ft | 0 kts | 82° |